Terminal Aerodrome Forecast
Issued by NWS

Home | Current Version | Previous Version | Text Only | Print | Product List | Glossary On
Versions: 1 2 3 4 5 6 7 8 9 10 11 12
000
FTUS45 KRIW 160500
TAFJAC
TAF
KJAC 160523Z 1606/1706 36006KT P6SM SCT110
     FM161300 VRB05KT P6SM SCT110
     FM162100 24011KT P6SM VCSH SCT110 BKN150
     FM170200 VRB05KT P6SM SCT110
      AMD LTD TO CLD VIS AND WIND=

USA.gov is the U.S. government's official web portal to all federal, state and local government web resources and services.